createdAt,value
2018-11-28T00:00:19.933Z,19.57
2018-11-28T00:02:49.083Z,18.77
2018-11-28T00:05:17.321Z,17.90
2018-11-28T00:07:45.533Z,18.23
2018-11-28T00:10:14.589Z,18.30
2018-11-28T00:12:42.870Z,19.00
2018-11-28T00:15:12.784Z,19.77
2018-11-28T00:17:41.148Z,18.97
2018-11-28T00:20:18.814Z,19.50
2018-11-28T00:22:47.190Z,18.17
2018-11-28T00:25:15.885Z,18.43
2018-11-28T00:27:44.115Z,17.67
2018-11-28T00:30:16.121Z,18.63
2018-11-28T00:32:44.559Z,19.00
2018-11-28T00:35:28.406Z,18.17
2018-11-28T00:37:56.622Z,18.17
2018-11-28T00:40:24.858Z,19.33
2018-11-28T00:42:53.070Z,17.77
2018-11-28T00:45:23.249Z,21.00
2018-11-28T00:47:51.493Z,18.10
2018-11-28T00:50:20.728Z,19.70
2018-11-28T00:52:48.965Z,19.10
2018-11-28T00:55:17.850Z,18.80
2018-11-28T00:57:46.297Z,18.90
2018-11-28T01:00:16.307Z,18.73
2018-11-28T01:02:44.564Z,18.30
2018-11-28T01:05:13.267Z,19.20
2018-11-28T01:07:41.789Z,19.73
2018-11-28T01:10:18.957Z,21.63
2018-11-28T01:12:47.530Z,19.47
2018-11-28T01:15:16.613Z,21.63
2018-11-28T01:17:44.818Z,20.33
2018-11-28T01:20:15.838Z,18.20
2018-11-28T01:22:44.139Z,18.60
2018-11-28T01:25:13.210Z,21.13
2018-11-28T01:27:41.480Z,20.17
2018-11-28T01:30:11.066Z,21.47
2018-11-28T01:32:39.301Z,19.63
2018-11-28T01:35:10.778Z,19.50
2018-11-28T01:37:39.465Z,16.50
2018-11-28T01:40:09.626Z,21.60
2018-11-28T01:42:37.878Z,20.27
2018-11-28T01:45:06.590Z,20.80
2018-11-28T01:47:34.791Z,18.87
2018-11-28T01:50:03.022Z,18.83
2018-11-28T01:52:31.223Z,20.00
2018-11-28T01:54:59.653Z,19.37
2018-11-28T01:57:27.867Z,18.23
2018-11-28T01:59:56.071Z,20.27
2018-11-28T02:02:24.281Z,21.37
2018-11-28T02:04:52.491Z,18.90
2018-11-28T02:07:20.706Z,22.37
2018-11-28T02:09:48.935Z,20.23
2018-11-28T02:12:17.199Z,20.30
2018-11-28T02:14:45.406Z,21.80
2018-11-28T02:17:13.620Z,21.00
2018-11-28T02:19:41.826Z,19.33
2018-11-28T02:22:10.036Z,21.00
2018-11-28T02:24:38.243Z,21.43
2018-11-28T02:27:06.446Z,21.97
2018-11-28T02:29:34.694Z,19.57
2018-11-28T02:32:02.903Z,19.47
2018-11-28T02:34:31.120Z,20.87
2018-11-28T02:36:59.397Z,20.07
2018-11-28T02:39:27.601Z,20.47
2018-11-28T02:41:55.817Z,21.17
2018-11-28T02:44:24.042Z,20.67
2018-11-28T02:46:52.271Z,17.97
2018-11-28T02:49:20.482Z,19.73
2018-11-28T02:51:48.808Z,20.10
2018-11-28T02:54:16.983Z,19.77
2018-11-28T02:56:45.200Z,20.10
2018-11-28T02:59:13.434Z,21.33
2018-11-28T03:01:41.665Z,19.50
2018-11-28T03:04:09.899Z,19.20
2018-11-28T03:06:38.099Z,20.30
2018-11-28T03:09:07.833Z,20.50
2018-11-28T03:11:37.113Z,20.37
2018-11-28T03:14:05.403Z,19.90
2018-11-28T03:16:33.611Z,19.33
2018-11-28T03:19:01.847Z,19.10
2018-11-28T03:21:30.062Z,19.83
2018-11-28T03:23:58.282Z,18.77
2018-11-28T03:26:26.477Z,21.27
2018-11-28T03:28:54.686Z,20.30
2018-11-28T03:31:22.907Z,21.27
2018-11-28T03:33:51.121Z,20.17
2018-11-28T03:36:19.409Z,20.10
2018-11-28T03:38:47.628Z,21.37
2018-11-28T03:41:15.842Z,19.57
2018-11-28T03:43:44.069Z,21.33
2018-11-28T03:46:12.339Z,20.10
2018-11-28T03:48:40.544Z,18.93
2018-11-28T03:51:08.754Z,20.77
2018-11-28T03:53:36.954Z,21.17
2018-11-28T03:56:05.190Z,19.80
2018-11-28T03:58:33.421Z,20.70
2018-11-28T04:01:01.655Z,21.20
2018-11-28T04:03:29.922Z,18.80
2018-11-28T04:05:58.191Z,19.40
2018-11-28T04:08:26.386Z,22.47
2018-11-28T04:10:54.626Z,20.30
2018-11-28T04:13:22.846Z,19.57
2018-11-28T04:15:51.049Z,21.20
2018-11-28T04:18:19.342Z,19.43
2018-11-28T04:20:47.557Z,20.37
2018-11-28T04:23:15.792Z,20.93
2018-11-28T04:25:44.010Z,18.60
2018-11-28T04:28:12.201Z,20.50
2018-11-28T04:30:40.405Z,20.70
2018-11-28T04:33:08.657Z,20.00
2018-11-28T04:35:36.871Z,21.00
2018-11-28T04:38:05.074Z,20.80
2018-11-28T04:40:33.286Z,19.70
2018-11-28T04:43:01.515Z,19.77
2018-11-28T04:45:29.724Z,21.90
2018-11-28T04:47:58.052Z,18.30
2018-11-28T04:50:26.223Z,20.67
2018-11-28T04:52:54.446Z,20.03
2018-11-28T04:55:22.642Z,19.70
2018-11-28T04:57:50.883Z,18.07
2018-11-28T05:00:23.150Z,19.23
2018-11-28T05:02:51.853Z,21.70
2018-11-28T05:05:20.118Z,21.90
2018-11-28T05:07:49.083Z,18.17
2018-11-28T05:10:18.266Z,21.93
2018-11-28T05:12:46.480Z,19.43
2018-11-28T05:15:16.594Z,21.00
2018-11-28T05:17:45.717Z,20.00
2018-11-28T05:20:15.038Z,20.33
2018-11-28T05:22:43.262Z,20.60
2018-11-28T05:25:14.633Z,20.17
2018-11-28T05:27:42.930Z,19.73
2018-11-28T05:30:17.219Z,22.63
2018-11-28T05:32:45.464Z,21.20
2018-11-28T05:35:14.657Z,20.63
2018-11-28T05:37:43.021Z,20.10
2018-11-28T05:40:14.966Z,21.27
2018-11-28T05:42:43.172Z,19.83
2018-11-28T05:45:11.473Z,20.40
2018-11-28T05:47:39.748Z,21.30
2018-11-28T05:50:10.046Z,19.70
2018-11-28T05:52:38.335Z,21.60
2018-11-28T05:55:08.242Z,21.63
2018-11-28T05:57:36.759Z,19.77
2018-11-28T06:00:10.429Z,20.57
2018-11-28T06:02:38.660Z,19.80
2018-11-28T06:05:08.158Z,22.40
2018-11-28T06:07:36.381Z,19.60
2018-11-28T06:10:05.914Z,20.23
2018-11-28T06:12:34.126Z,19.13
2018-11-28T06:15:02.398Z,21.67
2018-11-28T06:17:30.610Z,21.13
2018-11-28T06:19:58.876Z,21.27
2018-11-28T06:22:27.081Z,20.30
2018-11-28T06:24:55.288Z,20.50
2018-11-28T06:27:23.500Z,20.87
2018-11-28T06:29:51.719Z,20.90
2018-11-28T06:32:19.992Z,19.80
2018-11-28T06:34:48.207Z,21.70
2018-11-28T06:37:16.406Z,22.33
2018-11-28T06:39:44.655Z,19.87
2018-11-28T06:42:12.932Z,20.70
2018-11-28T06:44:41.134Z,22.60
2018-11-28T06:47:09.351Z,20.10
2018-11-28T06:49:37.602Z,19.07
2018-11-28T06:52:05.851Z,21.10
2018-11-28T06:54:34.071Z,21.43
2018-11-28T06:57:02.333Z,19.70
2018-11-28T06:59:30.602Z,20.30
2018-11-28T07:01:58.879Z,21.50
2018-11-28T07:04:27.154Z,20.33
2018-11-28T07:06:55.751Z,21.47
2018-11-28T07:09:24.004Z,22.53
2018-11-28T07:11:52.257Z,20.23
2018-11-28T07:14:20.673Z,22.53
2018-11-28T07:16:49.095Z,18.63
2018-11-28T07:19:17.342Z,21.53
2018-11-28T07:21:45.566Z,21.03
2018-11-28T07:24:13.765Z,21.83
2018-11-28T07:26:41.978Z,19.77
2018-11-28T07:29:10.205Z,19.53
2018-11-28T07:31:38.448Z,19.07
2018-11-28T07:34:06.646Z,21.50
2018-11-28T07:36:35.778Z,20.70
2018-11-28T07:39:04.634Z,20.93
2018-11-28T07:41:32.835Z,21.37
2018-11-28T07:44:01.115Z,21.00
2018-11-28T07:46:29.390Z,19.90
2018-11-28T07:48:57.826Z,20.40
2018-11-28T07:51:26.055Z,21.57
2018-11-28T07:53:54.322Z,19.70
2018-11-28T07:56:22.725Z,18.80
2018-11-28T07:58:50.942Z,21.30
2018-11-28T08:01:19.155Z,20.70
2018-11-28T08:03:47.418Z,19.17
2018-11-28T08:06:15.641Z,20.30
2018-11-28T08:08:43.846Z,19.57
2018-11-28T08:11:12.101Z,21.70
2018-11-28T08:13:40.366Z,19.03
2018-11-28T08:16:08.556Z,19.43
2018-11-28T08:18:37.739Z,20.50
2018-11-28T08:21:06.144Z,18.50
2018-11-28T08:23:34.343Z,19.13
2018-11-28T08:26:02.549Z,22.20
2018-11-28T08:28:30.862Z,20.20
2018-11-28T08:30:59.156Z,18.73
2018-11-28T08:33:27.375Z,18.47
2018-11-28T08:35:55.630Z,18.10
2018-11-28T08:38:23.834Z,19.07
2018-11-28T08:40:52.083Z,17.90
2018-11-28T08:43:20.339Z,19.00
2018-11-28T08:45:48.558Z,18.50
2018-11-28T08:48:18.790Z,18.90
2018-11-28T08:50:47.488Z,20.23
2018-11-28T08:53:15.711Z,17.23
2018-11-28T08:55:43.923Z,16.93
2018-11-28T08:58:12.197Z,19.17
2018-11-28T09:00:40.434Z,17.57
2018-11-28T09:03:08.653Z,17.70
2018-11-28T09:05:36.897Z,18.00
2018-11-28T09:08:05.174Z,19.47
2018-11-28T09:10:33.395Z,17.27
2018-11-28T09:13:04.342Z,17.63
2018-11-28T09:15:31.321Z,17.27
2018-11-28T09:17:58.693Z,17.43
2018-11-28T09:20:26.941Z,17.03
2018-11-28T09:22:55.168Z,17.40
2018-11-28T09:25:23.408Z,17.40
2018-11-28T09:27:55.728Z,17.30
2018-11-28T09:30:23.976Z,17.10
2018-11-28T09:32:52.197Z,17.40
2018-11-28T09:35:20.551Z,16.87
2018-11-28T09:37:48.867Z,16.80
2018-11-28T09:40:22.017Z,16.67
2018-11-28T09:42:51.134Z,17.63
2018-11-28T09:45:19.781Z,15.90
2018-11-28T09:47:48.026Z,17.20
2018-11-28T09:50:17.102Z,16.13
2018-11-28T09:52:45.352Z,16.20
2018-11-28T09:55:14.695Z,15.50
2018-11-28T09:57:42.938Z,16.10
2018-11-28T10:00:14.462Z,17.60
2018-11-28T10:02:42.703Z,16.23
2018-11-28T10:05:13.194Z,16.60
2018-11-28T10:07:41.412Z,16.03
2018-11-28T10:10:10.865Z,17.20
2018-11-28T10:12:39.064Z,15.27
2018-11-28T10:15:14.726Z,15.53
2018-11-28T10:17:43.026Z,16.47
2018-11-28T10:20:12.054Z,17.00
2018-11-28T10:22:40.723Z,14.90
2018-11-28T10:25:18.402Z,15.37
2018-11-28T10:27:49.557Z,15.33
2018-11-28T10:30:21.962Z,16.23
2018-11-28T10:32:50.789Z,15.17
2018-11-28T10:35:19.057Z,15.70
2018-11-28T10:37:47.358Z,15.20
2018-11-28T10:40:17.383Z,15.40
2018-11-28T10:42:46.368Z,15.33
2018-11-28T10:45:15.806Z,14.90
2018-11-28T10:47:44.033Z,14.50
2018-11-28T10:50:13.936Z,15.90
2018-11-28T10:52:42.247Z,14.60
2018-11-28T10:55:19.145Z,14.10
2018-11-28T10:57:47.377Z,13.53
2018-11-28T11:00:23.038Z,13.20
2018-11-28T11:02:56.678Z,13.23
2018-11-28T11:05:30.223Z,13.60
2018-11-28T11:08:03.857Z,12.70
2018-11-28T11:10:37.594Z,14.17
2018-11-28T11:13:11.544Z,12.53
2018-11-28T11:15:39.813Z,11.90
2018-11-28T11:18:10.741Z,15.33
2018-11-28T11:20:37.588Z,12.73
2018-11-28T11:23:08.350Z,12.70
2018-11-28T11:25:35.771Z,12.73
2018-11-28T11:28:04.079Z,15.00
2018-11-28T11:30:32.303Z,13.37
2018-11-28T11:33:00.540Z,13.00
2018-11-28T11:35:28.754Z,12.17
2018-11-28T11:37:56.999Z,11.30
2018-11-28T11:40:25.359Z,12.70
2018-11-28T11:42:53.634Z,11.97
2018-11-28T11:45:21.913Z,13.03
2018-11-28T11:47:50.146Z,11.53
2018-11-28T11:50:18.871Z,10.90
2018-11-28T11:52:47.204Z,11.53
2018-11-28T11:55:18.507Z,12.40
2018-11-28T11:57:47.132Z,11.07
2018-11-28T12:00:24.570Z,11.97
2018-11-28T12:03:02.995Z,11.10
2018-11-28T12:05:31.339Z,11.10
2018-11-28T12:07:59.651Z,10.80
2018-11-28T12:10:27.999Z,9.70
2018-11-28T12:12:56.249Z,11.90
2018-11-28T12:15:38.877Z,11.63
2018-11-28T12:18:07.134Z,10.57
2018-11-28T12:20:43.746Z,10.30
2018-11-28T12:23:12.269Z,12.50
2018-11-28T12:25:40.510Z,10.83
2018-11-28T12:28:08.747Z,11.00
2018-11-28T12:30:37.065Z,11.90
2018-11-28T12:33:05.578Z,10.80
2018-11-28T12:35:33.855Z,10.70
2018-11-28T12:38:02.270Z,10.90
2018-11-28T12:40:31.429Z,10.30
2018-11-28T12:43:00.030Z,9.90
2018-11-28T12:45:28.287Z,9.93
2018-11-28T12:47:56.565Z,11.73
2018-11-28T12:50:28.708Z,11.20
2018-11-28T12:52:58.006Z,11.47
2018-11-28T12:55:26.354Z,10.07
2018-11-28T12:57:55.425Z,10.40
2018-11-28T13:00:25.763Z,10.30
2018-11-28T13:02:54.055Z,9.97
2018-11-28T13:05:24.245Z,9.67
2018-11-28T13:07:52.510Z,10.33
2018-11-28T13:10:23.004Z,10.90
2018-11-28T13:12:51.620Z,10.20
2018-11-28T13:15:20.707Z,11.40
2018-11-28T13:17:48.966Z,10.93
2018-11-28T13:20:18.039Z,9.83
2018-11-28T13:22:47.162Z,9.97
2018-11-28T13:25:18.545Z,11.00
2018-11-28T13:27:46.774Z,9.23
2018-11-28T13:30:16.741Z,9.47
2018-11-28T13:32:45.297Z,11.10
2018-11-28T13:35:14.341Z,10.40
2018-11-28T13:37:43.542Z,9.70
2018-11-28T13:40:12.804Z,9.77
2018-11-28T13:42:41.307Z,10.60
2018-11-28T13:45:17.118Z,10.13
2018-11-28T13:47:48.353Z,9.00
2018-11-28T13:50:16.615Z,10.23
2018-11-28T13:52:44.833Z,10.63
2018-11-28T13:57:43.749Z,10.33
2018-11-28T14:00:11.990Z,10.27
2018-11-28T14:02:40.873Z,10.10
2018-11-28T14:05:10.530Z,9.07
2018-11-28T14:07:38.743Z,9.43
2018-11-28T14:10:09.432Z,10.07
2018-11-28T14:12:37.685Z,8.87
2018-11-28T14:15:14.673Z,9.23
2018-11-28T14:17:44.113Z,9.40
2018-11-28T14:20:12.393Z,8.93
2018-11-28T14:22:40.727Z,9.60
2018-11-28T14:25:10.712Z,9.40
2018-11-28T14:27:38.949Z,8.50
2018-11-28T14:30:15.215Z,9.37
2018-11-28T14:32:43.654Z,9.00
2018-11-28T14:35:12.211Z,9.63
2018-11-28T14:37:40.493Z,11.33
2018-11-28T14:40:14.565Z,11.37
2018-11-28T14:42:42.979Z,12.73
2018-11-28T14:45:13.350Z,11.40
2018-11-28T14:47:41.578Z,10.70
2018-11-28T14:50:14.360Z,14.63
2018-11-28T14:52:42.661Z,12.30
2018-11-28T14:55:12.048Z,11.90
2018-11-28T14:57:40.478Z,10.87
2018-11-28T15:00:10.800Z,10.37
2018-11-28T15:02:39.067Z,10.13
2018-11-28T15:05:15.690Z,9.37
2018-11-28T15:07:44.248Z,9.13
2018-11-28T15:10:13.938Z,10.90
2018-11-28T15:12:42.167Z,10.37
2018-11-28T15:15:10.405Z,9.37
2018-11-28T15:17:38.667Z,9.10
2018-11-28T15:20:08.031Z,10.40
2018-11-28T15:22:36.275Z,7.87
2018-11-28T15:25:06.879Z,8.17
2018-11-28T15:27:35.144Z,7.70
2018-11-28T15:30:03.395Z,7.93
2018-11-28T15:32:31.684Z,6.73
2018-11-28T15:34:59.925Z,7.90
2018-11-28T15:37:28.220Z,6.83
2018-11-28T15:39:56.489Z,7.00
2018-11-28T15:42:24.695Z,7.80
2018-11-28T15:44:52.905Z,6.70
2018-11-28T15:47:21.173Z,7.10
2018-11-28T15:49:49.434Z,7.97
2018-11-28T15:52:17.647Z,6.93
2018-11-28T15:54:45.895Z,5.93
2018-11-28T15:57:14.173Z,7.07
2018-11-28T15:59:42.430Z,6.70
2018-11-28T16:02:10.777Z,6.03
2018-11-28T16:04:39.003Z,6.70
2018-11-28T16:07:07.273Z,6.87
2018-11-28T16:09:41.226Z,6.20
2018-11-28T16:12:09.514Z,6.83
2018-11-28T16:14:37.874Z,7.03
2018-11-28T16:17:06.703Z,7.07
2018-11-28T16:19:34.955Z,8.07
2018-11-28T16:22:03.203Z,7.00
2018-11-28T16:24:31.402Z,6.70
2018-11-28T16:26:59.659Z,7.70
2018-11-28T16:29:27.893Z,7.20
2018-11-28T16:31:56.125Z,8.10
2018-11-28T16:34:24.388Z,7.33
2018-11-28T16:36:52.608Z,7.37
2018-11-28T16:39:20.822Z,7.13
2018-11-28T16:41:49.046Z,8.40
2018-11-28T16:44:17.306Z,8.93
2018-11-28T16:46:45.519Z,7.87
2018-11-28T16:49:13.761Z,9.47
2018-11-28T16:51:42.168Z,9.70
2018-11-28T16:54:10.414Z,9.67
2018-11-28T16:56:38.870Z,10.00
2018-11-28T16:59:07.196Z,10.60
2018-11-28T17:01:35.476Z,9.90
2018-11-28T17:04:03.830Z,10.57
2018-11-28T17:06:32.237Z,13.30
2018-11-28T17:09:00.526Z,15.50
2018-11-28T17:11:28.787Z,18.93
2018-11-28T17:13:57.047Z,23.75
2018-11-28T17:16:25.305Z,145.87
2018-11-28T17:18:53.567Z,141.77
2018-11-28T17:21:21.830Z,41.27
2018-11-28T17:23:50.055Z,21.37
2018-11-28T17:26:18.302Z,17.30
2018-11-28T17:28:47.532Z,14.67
2018-11-28T17:31:15.798Z,11.00
2018-11-28T17:33:44.047Z,13.80
2018-11-28T17:36:12.754Z,12.93
2018-11-28T17:38:40.715Z,12.90
2018-11-28T17:41:08.984Z,10.60
2018-11-28T17:43:37.205Z,10.90
2018-11-28T17:46:05.601Z,10.20
2018-11-28T17:48:33.851Z,10.73
2018-11-28T17:51:02.099Z,10.60
2018-11-28T17:53:30.435Z,10.30
2018-11-28T17:55:59.146Z,9.67
2018-11-28T17:58:27.423Z,8.20
2018-11-28T18:00:55.701Z,9.17
2018-11-28T18:03:23.945Z,9.57
2018-11-28T18:05:52.173Z,9.37
2018-11-28T18:08:20.422Z,10.80
2018-11-28T18:10:49.609Z,10.07
2018-11-28T18:13:18.579Z,8.63
2018-11-28T18:15:50.938Z,9.90
2018-11-28T18:18:20.505Z,11.23
2018-11-28T18:20:50.287Z,9.60
2018-11-28T18:23:17.046Z,9.10
2018-11-28T18:25:45.924Z,8.07
2018-11-28T18:28:14.106Z,9.47
2018-11-28T18:30:42.330Z,9.73
2018-11-28T18:33:11.632Z,9.20
2018-11-28T18:35:39.844Z,9.30
2018-11-28T18:38:08.139Z,7.53
2018-11-28T18:40:36.462Z,8.37
2018-11-28T18:43:04.988Z,8.50
2018-11-28T18:45:34.563Z,7.83
2018-11-28T18:48:02.790Z,8.13
2018-11-28T18:50:31.038Z,8.40
2018-11-28T18:52:59.365Z,7.40
2018-11-28T18:55:27.603Z,8.30
2018-11-28T18:57:56.490Z,7.70
2018-11-28T19:00:25.628Z,7.80
2018-11-28T19:02:54.291Z,9.90
2018-11-28T19:05:22.534Z,8.10
2018-11-28T19:07:50.811Z,7.67
2018-11-28T19:10:26.023Z,8.10
2018-11-28T19:12:49.225Z,7.67
2018-11-28T19:15:19.382Z,8.80
2018-11-28T19:17:48.007Z,8.60
2018-11-28T19:20:18.152Z,9.00
2018-11-28T19:22:46.873Z,10.70
2018-11-28T19:25:16.016Z,10.57
2018-11-28T19:27:44.525Z,11.30
2018-11-28T19:30:18.096Z,10.20
2018-11-28T19:32:46.396Z,9.73
2018-11-28T19:35:14.650Z,9.73
2018-11-28T19:37:43.238Z,10.43
2018-11-28T19:40:15.891Z,9.43
2018-11-28T19:42:44.147Z,9.33
2018-11-28T19:45:12.408Z,10.30
2018-11-28T19:47:40.714Z,10.10
2018-11-28T19:50:10.942Z,11.13
2018-11-28T19:52:39.158Z,9.90
2018-11-28T19:55:08.305Z,9.53
2018-11-28T19:57:36.788Z,10.27
2018-11-28T20:00:12.386Z,10.40
2018-11-28T20:02:40.637Z,10.80
2018-11-28T20:05:08.887Z,9.17
2018-11-28T20:07:37.130Z,10.20
2018-11-28T20:10:08.967Z,10.23
2018-11-28T20:12:37.488Z,9.73
2018-11-28T20:15:09.670Z,11.27
2018-11-28T20:17:37.978Z,10.27
2018-11-28T20:20:09.634Z,9.63
2018-11-28T20:22:37.938Z,12.33
2018-11-28T20:25:08.254Z,9.37
2018-11-28T20:27:36.516Z,10.30
2018-11-28T20:30:08.880Z,11.13
2018-11-28T20:32:37.126Z,10.13
2018-11-28T20:35:06.475Z,9.63
2018-11-28T20:37:34.739Z,8.80
2018-11-28T20:40:03.115Z,11.20
2018-11-28T20:42:31.471Z,9.77
2018-11-28T20:44:59.738Z,10.40
2018-11-28T20:47:27.946Z,10.97
2018-11-28T20:49:56.210Z,10.50
2018-11-28T20:52:24.463Z,9.93
2018-11-28T20:54:52.731Z,9.67
2018-11-28T20:57:20.985Z,10.50
2018-11-28T20:59:49.241Z,10.67
2018-11-28T21:02:17.466Z,10.67
2018-11-28T21:04:45.699Z,9.90
2018-11-28T21:07:13.980Z,10.50
2018-11-28T21:09:47.538Z,10.10
2018-11-28T21:12:15.871Z,10.30
2018-11-28T21:14:44.165Z,11.53
2018-11-28T21:17:12.394Z,10.90
2018-11-28T21:19:40.620Z,11.30
2018-11-28T21:22:08.853Z,10.30
2018-11-28T21:24:37.178Z,11.07
2018-11-28T21:27:05.563Z,9.90
2018-11-28T21:29:33.814Z,11.03
2018-11-28T21:32:02.109Z,12.10
2018-11-28T21:34:30.495Z,12.00
2018-11-28T21:36:58.758Z,11.23
2018-11-28T21:39:27.051Z,10.50
2018-11-28T21:41:55.341Z,11.63
2018-11-28T21:44:23.645Z,11.40
2018-11-28T21:46:51.890Z,11.50
2018-11-28T21:49:20.186Z,12.70
2018-11-28T21:51:48.429Z,12.27
2018-11-28T21:54:16.735Z,12.90
2018-11-28T21:56:44.956Z,12.27
2018-11-28T21:59:13.226Z,12.00
2018-11-28T22:01:41.465Z,12.33
2018-11-28T22:04:10.439Z,12.40
2018-11-28T22:06:38.738Z,13.30
2018-11-28T22:09:09.037Z,11.77
2018-11-28T22:11:37.416Z,11.83
2018-11-28T22:14:06.134Z,12.10
2018-11-28T22:16:34.370Z,12.80
2018-11-28T22:19:03.343Z,12.90
2018-11-28T22:21:31.576Z,10.93
2018-11-28T22:23:59.803Z,12.33
2018-11-28T22:26:28.021Z,11.00
2018-11-28T22:28:56.269Z,11.57
2018-11-28T22:31:24.513Z,11.80
2018-11-28T22:33:52.747Z,10.87
2018-11-28T22:36:21.048Z,12.07
2018-11-28T22:38:49.273Z,10.90
2018-11-28T22:41:17.521Z,11.10
2018-11-28T22:43:45.754Z,12.77
2018-11-28T22:46:13.993Z,11.80
2018-11-28T22:48:42.272Z,11.20
2018-11-28T22:51:10.531Z,11.30
2018-11-28T22:53:38.783Z,12.27
2018-11-28T22:56:07.025Z,11.33
2018-11-28T22:58:35.259Z,11.40
2018-11-28T23:01:10.228Z,11.80
2018-11-28T23:03:41.282Z,12.00
2018-11-28T23:06:09.537Z,12.03
2018-11-28T23:08:37.792Z,12.40
2018-11-28T23:11:06.014Z,11.20
2018-11-28T23:13:34.257Z,11.00
2018-11-28T23:16:02.580Z,11.00
2018-11-28T23:18:30.913Z,11.73
2018-11-28T23:20:59.195Z,11.20
2018-11-28T23:23:27.644Z,11.93
2018-11-28T23:25:55.888Z,11.43
2018-11-28T23:28:24.197Z,12.57
2018-11-28T23:30:52.446Z,12.03
2018-11-28T23:33:20.694Z,10.50
2018-11-28T23:35:48.923Z,13.00
2018-11-28T23:38:17.198Z,13.80
2018-11-28T23:40:45.467Z,13.17
2018-11-28T23:43:13.719Z,12.50
2018-11-28T23:45:41.986Z,12.40
2018-11-28T23:48:10.238Z,13.53
2018-11-28T23:50:38.514Z,11.50
2018-11-28T23:53:06.747Z,13.10
2018-11-28T23:55:34.977Z,12.20
2018-11-28T23:58:03.235Z,13.27
